Johan Hjort — LDGJ — position and weather

sailwx.info

Track history (hours):
 
Tides and Currents Weather Stations Pressure Air Temp Water Temp Dewpoint Dewpoint Depression Visibility Wind Speed Wind Dir Waves Ship Positions

Oceanographic research ship Johan Hjort (Norway)

Detailed information on ship capabilities available from University of Delaware's Ocean Information Center and ARCUS's ALIAS (Arctic Logistics Information and Support) project.

Last reported at 2018-Feb-23 17:00 UTC. Time now 2018-Feb-23 17:51 UTC.
Position N 71°00' E 037°30'.

Type: Fishing. MMSI: 257139000.

Wind from 080 at 10 knots

Barometer 946.1 mb
Air temperature -4.2 ° C
Dewpoint -7.1 ° C
Water temperature 7.0 ° C

Date/timePositionNaut miles runAvg speedWind from/ knotsBaromVisibWave heightAir tempDewpointWater temp
2018-Feb-23 17:00N 71°00' E 037°30'2 2.0 080 / 10946.1 -4.2-7.1 7.0
2018-Feb-23 16:00N 71°00' E 037°24'1212.0 090 / 121039.4 -2.5-12.1 6.9
2018-Feb-23 15:00N 70°48' E 037°24'7 7.2 080 / 171038.8 -2.7-10.8 6.9
2018-Feb-23 14:00N 70°42' E 037°12'6 6.0 080 / 141038.5 -3.2-10.8 6.9
2018-Feb-23 13:00N 70°48' E 037°12'6 6.3 080 / 141038.0 -3.2-10.0 6.8
2018-Feb-23 12:00N 70°42' E 037°18'1212.0 070 / 101037.5 -4.0-9.5 6.9
2018-Feb-23 11:00N 70°30' E 037°18'0 0.0 080 / 141037.2 -3.0-10.6 6.8
2018-Feb-23 10:00N 70°30' E 037°18'8 8.0 080 / 161037.0 -2.7-13.8 6.8
2018-Feb-23 09:00N 70°30' E 037°42'6 6.0 090 / 161036.9 -3.2-13.5 6.7
2018-Feb-23 08:00N 70°30' E 038°00'2 2.0 080 / 161036.4 -3.2-12.3 6.7
2018-Feb-23 07:00N 70°30' E 038°06'1212.0 090 / 141036.2 -4.4-9.1 6.7
2018-Feb-23 06:00N 70°42' E 038°06'2 2.0 100 / 141037.0 -3.7-10.3 6.6
2018-Feb-23 05:00N 70°42' E 038°00'6 6.3 100 / 161036.7 -3.3-9.5 6.4
2018-Feb-23 04:00N 70°48' E 038°06'1212.2 080 / 171036.7 -4.0-10.0 6.4
2018-Feb-23 03:00N 71°00' E 038°12'6 6.3 080 / 141036.5 -4.3-10.4 6.5
2018-Feb-23 02:00N 71°06' E 038°18'2 1.9 080 / 101037.0 -4.8-9.1 6.4
2018-Feb-23 01:00N 71°06' E 038°12'1212.2 080 / 271036.4 -4.1-10.2 6.4
2018-Feb-23 00:00N 71°18' E 038°06'6 5.8 080 / 191036.5 -2.2-10.7 6.4
2018-Feb-22 23:00N 71°18' E 038°24'10 9.7 080 / 191036.5 -3.7-12.8 6.4
2018-Feb-22 22:00N 71°24' E 038°48'2 1.9 090 / 231036.4 -2.6-9.7 6.5
2018-Feb-22 21:00N 71°24' E 038°54'8 7.7 100 / 211035.6 -3.8-10.9 6.5
2018-Feb-22 20:00N 71°24' E 039°18'1111.3 120 / 231035.5 -4.5-8.0 6.5
2018-Feb-22 19:00N 71°18' E 039°48'1111.4 110 / 271035.0 -4.0-7.9 6.5
2018-Feb-22 18:00N 71°12' E 040°18'8 7.7 110 / 191034.7 -5.2-8.4 6.5
2018-Feb-22 17:00N 71°12' E 040°42'6 6.3 110 / 161034.2 -5.7-8.7 6.5
2018-Feb-22 16:00N 71°06' E 040°36'0 0.0 110 / 161033.3 -5.0-10.8 6.5
2018-Feb-22 15:00N 71°06' E 040°36'0 0.0 110 / 121032.2 -5.3-11.5 6.4
2018-Feb-22 14:00N 71°06' E 040°36'4 3.9 120 / 141032.0 -5.0-11.1 6.4
2018-Feb-22 13:00N 71°06' E 040°48'6 6.3 110 / 121031.7 -5.2-10.0 6.4
2018-Feb-22 12:00N 71°12' E 040°54'6 6.3 120 / 141031.5 -4.7-12.3 6.5
2018-Feb-22 11:00N 71°06' E 040°48'2 1.9 110 / 101030.7 -5.3-11.2 6.6
2018-Feb-22 10:00N 71°06' E 040°54'0 0.0 090 / 141030.7 -5.2-13.5 6.5
2018-Feb-22 09:00N 71°06' E 040°54'2 1.9 090 / 141030.2 -4.5-13.3 6.5
2018-Feb-22 08:00N 71°06' E 041°00'2 1.9 090 / 171029.2 -5.7-12.2 6.5
2018-Feb-22 07:00N 71°06' E 040°54'6 6.3 080 / 251029.2 -5.2-10.5 6.5
2018-Feb-22 06:00N 71°12' E 040°48'2 1.9 080 / 211029.0 -5.1-11.3 6.5
2018-Feb-22 05:00N 71°12' E 040°42'6 6.3 080 / 251028.6 -5.1-11.9 6.4
2018-Feb-22 04:00N 71°18' E 040°36'2 1.9 090 / 271028.3 -5.5-10.5 6.4
2018-Feb-22 03:00N 71°18' E 040°30'7 7.1 100 / 291027.9 -6.0-8.9 6.4
2018-Feb-22 02:00N 71°24' E 040°18'2 1.9 110 / 251027.7 -6.0-9.7 6.4
2018-Feb-22 01:00N 71°24' E 040°12'2 1.9 120 / 291027.1 -4.6-11.6 6.4
2018-Feb-22 00:00N 71°24' E 040°18'6 5.7 120 / 291027.0 -4.7-11.2 6.4
2018-Feb-21 23:00N 71°24' E 040°36'8 7.7 120 / 291026.7 -4.9-11.2 6.3
2018-Feb-21 22:00N 71°24' E 041°00'6 5.7 120 / 291026.4 -5.0-11.2 6.4
2018-Feb-21 21:00N 71°24' E 041°18'6 5.7 120 / 311026.0 -5.2-12.4 6.5
2018-Feb-21 20:00N 71°24' E 041°36'4 3.8 120 / 331025.7 -5.2-11.7 6.4
2018-Feb-21 19:00N 71°24' E 041°48'2 1.9 110 / 351025.2 -5.8-13.3 6.5
2018-Feb-21 18:00N 71°24' E 041°42'2 1.9 110 / 351024.7 -6.5-10.3 6.4
2018-Feb-21 17:00N 71°24' E 041°36'2 1.9 110 / 351023.8 -5.4-11.1 6.4
2018-Feb-21 16:00N 71°24' E 041°30'2 1.9 110 / 391022.7 -5.1-8.3 6.5
2018-Feb-21 15:00N 71°24' E 041°24'0 0.0 110 / 371021.8 -4.6-10.4 6.4
2018-Feb-21 14:00N 71°24' E 041°24'2 1.9 110 / 431021.0 -4.5-8.6 6.5
2018-Feb-21 13:00N 71°24' E 041°18'2 1.9 100 / 451019.7 -4.9-7.4 6.5
2018-Feb-21 12:00N 71°24' E 041°12'2 1.9 100 / 431018.5 -3.7-8.4 6.5
2018-Feb-21 11:00N 71°24' E 041°06'2 1.9 100 / 411018.0 -3.3-8.1 6.6
2018-Feb-21 10:00N 71°24' E 041°00'2 1.9 120 / 391016.7 -2.5-8.0 6.8
2018-Feb-21 09:00N 71°24' E 041°06'6 6.3 110 / 251016.1 -2.3-7.1 6.5
2018-Feb-21 08:00N 71°18' E 041°12'2 1.9 120 / 231015.9 -3.7-6.7 6.7
2018-Feb-21 07:00N 71°18' E 041°18'2 1.9 110 / 231015.4 -2.2-12.6 6.7
2018-Feb-21 06:00N 71°18' E 041°12'1313.3 120 / 171015.7 -2.8-15.9 6.4
2018-Feb-21 05:00N 71°06' E 041°30'7 7.2 120 / 161015.5 -3.5-15.3 6.3
2018-Feb-21 04:00N 71°00' E 041°42'6 6.3 120 / 81015.2 -4.2-13.4 6.3
2018-Feb-21 03:00N 71°06' E 041°48'1312.6 160 / 121015.2 -4.2-13.0 6.2
2018-Feb-21 02:00N 71°18' E 042°00'2 1.9 170 / 141014.8 -4.2-9.4 6.3
2018-Feb-21 01:00N 71°18' E 042°06'6 5.8 170 / 81014.9 -4.4-7.7 6.1
2018-Feb-21 00:00N 71°18' E 042°24'1111.4 180 / 81015.2 -4.7-8.3 6.0
2018-Feb-20 23:00N 71°12' E 042°54'4 3.9 140 / 61015.3 -4.4-10.7 6.0
2018-Feb-20 22:00N 71°12' E 043°06'1212.0 100 / 41015.6 -4.5-11.3 6.0
2018-Feb-20 21:00N 71°00' E 043°06'6 6.0 090 / 41015.7 -4.8-15.5 5.9
2018-Feb-20 20:00N 70°54' E 043°06'2 2.0 010 / 41015.7 -5.2-16.0 5.9
2018-Feb-20 19:00N 70°54' E 043°12'1313.4 290 / 81016.0 -5.0-17.7 5.8
2018-Feb-20 18:00N 70°42' E 043°30'6 5.9 310 / 101016.6 -5.0-15.1 5.8
2018-Feb-20 17:00N 70°42' E 043°48'8 7.9 310 / 101017.0 -4.5-12.1 5.7
2018-Feb-20 16:00N 70°42' E 044°12'1211.6 320 / 171017.2 -4.2-9.8 5.7
2018-Feb-20 15:00N 70°36' E 044°42'1010.0 330 / 171017.1 -4.4-8.0 5.5
2018-Feb-20 14:00N 70°36' E 045°12'4 4.0 260 / 121017.6 -5.5-8.9 5.4
2018-Feb-20 13:00N 70°36' E 045°24'1010.0 260 / 61018.1 -3.7-11.8 5.5
2018-Feb-20 12:00N 70°36' E 045°54'1211.7 310 / 41018.7 -3.8-9.5 5.6
2018-Feb-20 11:00N 70°30' E 046°24'8 8.0 250 / 101019.1 -3.3-10.9 5.7
2018-Feb-20 10:00N 70°30' E 046°48'4 4.0 230 / 81019.8 -4.3-7.6 5.9
2018-Feb-20 09:00N 70°30' E 047°00'1010.0 240 / 121020.1 -3.3-8.8 5.9
2018-Feb-20 08:00N 70°30' E 047°30'2 2.0 030 / 21020.6 -4.5-7.6 6.1
2018-Feb-20 07:00N 70°30' E 047°36'1312.6 290 / 101021.0 -4.1-7.4 6.1
2018-Feb-20 06:00N 70°42' E 047°48'0 0.0 290 / 81020.2 -3.3-10.5 6.1
2018-Feb-20 05:00N 70°42' E 047°48'0 0.0 320 / 141020.5 -3.4-9.2 6.2
2018-Feb-20 04:00N 70°42' E 047°48'7 7.2 330 / 61021.1 -3.3-10.5 6.3
2018-Feb-20 03:00N 70°48' E 047°36'10 9.9 340 / 81021.5 -3.2-11.7 6.3
2018-Feb-20 02:00N 70°54' E 047°12'7 7.2 350 / 101021.8 -3.4-9.4 6.3
2018-Feb-20 01:00N 71°00' E 047°00'6 5.9 300 / 141022.7 -3.0-10.4 6.2
2018-Feb-20 00:00N 71°00' E 046°42'10 9.8 290 / 61023.3 -4.0-8.0 6.4
2018-Feb-19 23:00N 71°00' E 046°12'6 5.9 320 / 81023.7 -2.9-10.6 6.4
2018-Feb-19 22:00N 71°00' E 045°54'10 9.8 330 / 61024.5 -3.2-11.1 6.4
2018-Feb-19 21:00N 71°00' E 045°24'6 5.9 340 / 81024.7 -3.1-10.9 6.3
2018-Feb-19 20:00N 71°00' E 045°06'6 6.3 330 / 101025.0 -2.5-9.8 6.5
2018-Feb-19 19:00N 71°06' E 045°00'6 5.8 020 / 121024.8 -2.8-11.7 6.4
2018-Feb-19 18:00N 71°06' E 044°42'4 3.9 020 / 121025.6 -2.9-12.2 6.3
2018-Feb-19 17:00N 71°06' E 044°30'1111.4 040 / 211024.9 -2.7-7.8 6.3
2018-Feb-19 16:00N 71°12' E 044°00'2 1.9 050 / 171025.0 -2.5-12.0 6.2
2018-Feb-19 15:00N 71°12' E 043°54'6 6.0 060 / 191025.4 -2.6-8.8 6.2
2018-Feb-19 14:00N 71°18' E 043°54'1212.0 060 / 191025.9 -2.5-8.7 6.1
2018-Feb-19 13:00N 71°30' E 043°54'8 8.3 050 / 211025.2 -2.8-9.4 5.9
2018-Feb-19 12:00N 71°24' E 044°12'10 9.6 020 / 231025.4 -3.0-6.0 5.8
2018-Feb-19 11:00N 71°24' E 044°42'1111.3 230 / 211024.5 -1.4-8.9 5.9
2018-Feb-19 10:00N 71°18' E 045°12'6 6.3 230 / 191025.0 -2.1-9.1 5.7
2018-Feb-19 09:00N 71°24' E 045°18'7 7.1 220 / 191023.8 -2.4-9.8 5.7
2018-Feb-19 08:00N 71°30' E 045°30'2 1.9 220 / 171024.5 -2.2-9.5 5.8
2018-Feb-19 07:00N 71°30' E 045°36'10 9.5 220 / 191023.7 -2.7-10.1 5.8
2018-Feb-19 06:00N 71°30' E 046°06'8 7.6 220 / 161024.0 -3.1-11.0 5.9
2018-Feb-19 05:00N 71°30' E 046°30'6 6.3 220 / 121024.4 -3.2-11.4 6.1
2018-Feb-19 04:00N 71°36' E 046°36'6 6.0 210 / 141024.4 -3.1-12.1 6.0
2018-Feb-19 03:00N 71°42' E 046°36'6 6.3 200 / 121024.0 -2.8-11.6 6.1
2018-Feb-19 02:00N 71°48' E 046°42'6 6.0 190 / 101024.0 -2.7-10.1 6.3
2018-Feb-19 01:00N 71°54' E 046°42'1212.0 190 / 121023.8 -3.2-10.3 6.4
2018-Feb-19 00:00N 72°06' E 046°42'0 0.0 190 / 141023.9 -3.2-10.1 6.4
2018-Feb-18 23:00N 72°06' E 046°42'9 9.2 190 / 121024.0 -3.1-9.8 6.4
2018-Feb-18 22:00N 72°06' E 046°12'7 7.0 180 / 101024.2 -2.9-10.0 6.4
2018-Feb-18 21:00N 72°12' E 046°00'6 6.0 190 / 121023.8 -3.3-10.1 6.5
2018-Feb-18 20:00N 72°06' E 046°00'1212.1 180 / 141023.7 -3.4-10.4 6.4
2018-Feb-18 19:00N 71°54' E 045°54'6 5.6 160 / 101023.4 -3.7-10.7 6.4
2018-Feb-18 18:00N 71°54' E 045°36'1111.2 150 / 101023.2 -3.5-10.7 6.5
2018-Feb-18 17:00N 71°54' E 045°00'2 1.9 150 / 121022.7 -2.8-9.4 6.6
2018-Feb-18 16:00N 71°54' E 044°54'6 6.0 140 / 141022.7 -2.9-8.6 6.5
2018-Feb-18 15:00N 71°48' E 044°54'1212.1 130 / 171022.3 -3.1-8.5 6.5
2018-Feb-18 14:00N 71°36' E 044°48'4 3.8 120 / 171022.0 -3.2-8.4 6.5
2018-Feb-18 13:00N 71°36' E 044°36'1111.2 120 / 121021.6 -2.9-11.0 6.5
2018-Feb-18 12:00N 71°42' E 044°06'6 5.7 120 / 81021.2 -2.9-10.0 6.6
2018-Feb-18 11:00N 71°42' E 043°48'2 1.9 110 / 121020.8 -3.1-10.0 6.6
2018-Feb-18 10:00N 71°42' E 043°54'9 9.4 120 / 161020.5 -2.9-9.3 6.6
2018-Feb-18 09:00N 71°42' E 043°24'4 3.8 040 / 81020.0 -2.7-6.8 6.7
2018-Feb-18 08:00N 71°42' E 043°12'0 0.0 040 / 101019.3 -2.6-6.3 6.6
2018-Feb-18 07:00N 71°42' E 043°12'1212.1 040 / 161018.9 -2.3-7.1 6.7
2018-Feb-18 06:00N 71°30' E 043°06'2 1.9 040 / 141018.5 -1.8-10.1 6.6
2018-Feb-18 05:00N 71°30' E 043°00'10 9.5 060 / 121018.4 -2.1-8.6 6.6
2018-Feb-18 04:00N 71°30' E 042°30'6 5.7 320 / 171018.6 -2.6-7.9 6.6
2018-Feb-18 03:00N 71°30' E 042°12'6 6.3 010 / 121018.5 -2.2-21.4 6.6
2018-Feb-18 02:00N 71°36' E 042°06'1212.1 340 / 141018.5 -2.7-8.4 6.5
2018-Feb-18 01:00N 71°48' E 042°12'0 0.0 340 / 19 -0.8-6.7 6.6
2018-Feb-18 00:00N 71°48' E 042°12'6 6.3 330 / 171018.2 -2.2-11.0 6.5
2018-Feb-17 23:00N 71°54' E 042°18'6 6.0 340 / 161018.3 -2.1-11.9 6.5
2018-Feb-17 22:00N 72°00' E 042°18'6 5.6 340 / 191018.8 -2.6-11.0 6.4
2018-Feb-17 21:00N 72°00' E 042°36'7 7.4 340 / 211018.1 -3.2-8.9 6.4
2018-Feb-17 20:00N 72°00' E 043°00'2 1.9 340 / 211018.2 -2.0-10.1 6.3
2018-Feb-17 19:00N 72°00' E 043°06'8 8.2 340 / 211017.8 -2.9-7.8 6.3
2018-Feb-17 18:00N 72°06' E 043°24'6 6.0 320 / 211018.1 -2.3-10.3 6.3
2018-Feb-17 17:00N 72°12' E 043°24'6 6.3 280 / 251017.7 -3.2-8.6 6.4
2018-Feb-17 16:00N 72°18' E 043°18'9 9.1 320 / 211017.7 -2.0-12.7 6.3
2018-Feb-17 15:00N 72°18' E 042°48'5 5.5 020 / 231017.5 -1.8-10.7 6.2
2018-Feb-17 14:00N 72°18' E 042°30'1110.9 040 / 231017.6 -2.6-7.3 6.2
2018-Feb-17 13:00N 72°24' E 042°00'5 5.4 090 / 211018.1 -2.2-9.0 6.1
2018-Feb-17 12:00N 72°24' E 041°42'6 6.3 020 / 251018.2 -2.0-11.1 6.2
2018-Feb-17 11:00N 72°18' E 041°36'6 6.0 350 / 271017.7 -1.6-10.0 6.3
2018-Feb-17 10:00N 72°12' E 041°36'6 6.0 350 / 331017.4 -2.5-7.4 6.4
2018-Feb-17 09:00N 72°06' E 041°36'0 0.0 330 / 251017.1 -1.6-8.0 6.4
2018-Feb-17 08:00N 72°06' E 041°36'0 0.0 020 / 291016.7 -1.6-8.2 6.5
2018-Feb-17 07:00N 72°06' E 041°36'6 6.0 020 / 291015.2 -1.5-8.9 6.6
2018-Feb-17 06:00N 72°00' E 041°36'0 0.0 030 / 291015.8 -1.3-8.1 6.6
2018-Feb-17 05:00N 72°00' E 041°36'6 6.0 020 / 331015.7 0.1-8.9 6.7
2018-Feb-17 04:00N 72°06' E 041°36'6 6.0 320 / 331015.6 -2.2-5.8 6.7
2018-Feb-17 03:00N 72°00' E 041°36'6 6.3 350 / 331014.7 -1.1-5.5 6.6
2018-Feb-17 02:00N 71°54' E 041°30'6 6.0 340 / 331014.2 -1.1-6.1 6.7
2018-Feb-17 01:00N 71°48' E 041°30'6 6.3 330 / 291014.3 -1.1-5.1 6.7
2018-Feb-17 00:00N 71°42' E 041°24'0 0.0 330 / 271014.1 -0.4-6.4 6.6
2018-Feb-16 23:00N 71°42' E 041°24'2 1.9 330 / 291014.5 -1.5-5.4 6.6
2018-Feb-16 22:00N 71°42' E 041°18'2 1.9 340 / 251013.9 -0.0-5.8 6.5
2018-Feb-16 21:00N 71°42' E 041°12'8 8.2 330 / 291013.6 -0.0-6.0 6.4
2018-Feb-16 20:00N 71°48' E 040°54'9 9.4 340 / 291013.0 -0.3-6.6 6.3
2018-Feb-16 19:00N 71°48' E 040°24'4 3.7 340 / 271014.0 -0.4-7.5 6.3
2018-Feb-16 18:00N 71°48' E 040°12'7 7.5 330 / 251013.8 -0.4-7.1 6.4
2018-Feb-16 17:00N 71°48' E 039°48'7 7.1 340 / 311014.0 -0.9-9.5 6.6
2018-Feb-16 16:00N 71°42' E 039°36'2 1.9 340 / 231013.7 -0.5-7.2 6.5
2018-Feb-16 15:00N 71°42' E 039°30'10 9.6 340 / 251014.0 -0.5-7.2 6.6
2018-Feb-16 14:00N 71°48' E 039°06'2 1.9 340 / 251013.4 0.1-6.3 6.7
2018-Feb-16 13:00N 71°48' E 039°00'9 9.4 330 / 231012.8 -0.0-5.0 6.7
2018-Feb-16 12:00N 71°48' E 038°30'10 9.6 330 / 251012.7 -0.0-6.3 6.8
2018-Feb-16 11:00N 71°42' E 038°06'4 3.8 330 / 251012.7 -0.5-3.6 7.1
2018-Feb-16 10:00N 71°42' E 037°54'6 6.3 330 / 211012.5 0.9-5.8 7.2
2018-Feb-16 09:00N 71°48' E 037°48'7 7.5 340 / 251012.2 0.8-5.7 7.4
2018-Feb-16 08:00N 71°48' E 037°24'7 7.5 330 / 161012.2 0.6-3.7 7.4
2018-Feb-16 07:00N 71°48' E 037°00'2 1.9 330 / 191012.5 0.7-5.6 7.6
2018-Feb-16 06:00N 71°48' E 036°54'1111.2 310 / 231011.8 0.5-3.1 7.6
2018-Feb-16 05:00N 71°48' E 036°18'2 1.9 300 / 231012.5 1.0-7.0 7.7
2018-Feb-16 04:00N 71°48' E 036°12'7 7.5 310 / 211012.7 0.2-8.3 7.8
2018-Feb-16 03:00N 71°48' E 035°48'1111.1 320 / 211013.6 0.2-7.8 7.8
2018-Feb-16 02:00N 71°54' E 035°18'6 6.3 310 / 171013.8 -0.2-6.1 7.9
2018-Feb-16 01:00N 71°48' E 035°12'6 6.0 310 / 191013.5 -0.2-8.6 8.0
2018-Feb-16 00:00N 71°42' E 035°12'1212.0 320 / 191013.9 0.2-8.5 8.0
2018-Feb-15 23:00N 71°30' E 035°12'4 3.8 330 / 171014.3 0.1-7.0 8.0
2018-Feb-15 22:00N 71°30' E 035°00'10 9.5 340 / 161014.2 0.5-5.6 8.1
2018-Feb-15 21:00N 71°30' E 034°30'8 7.6 340 / 161014.2 1.3-4.7 8.0
2018-Feb-15 20:00N 71°30' E 034°06'7 7.1 330 / 121014.2 1.8-5.5 8.0
2018-Feb-15 19:00N 71°24' E 034°18'8 8.3 330 / 121013.7 2.0-6.0 7.8
2018-Feb-15 18:00N 71°18' E 034°36'2 1.9 320 / 101013.6 1.7-4.0 7.9
2018-Feb-15 17:00N 71°18' E 034°42'1313.3 330 / 101013.5 1.9-2.7 7.9
2018-Feb-15 16:00N 71°06' E 034°24'4 3.9 290 / 141013.5 1.8-1.3 7.8
2018-Feb-15 15:00N 71°06' E 034°12'1312.6 270 / 141013.2 1.6-0.6 7.7
2018-Feb-15 14:00N 70°54' E 034°00'6 6.3 260 / 211013.6 1.8-1.7 7.7
2018-Feb-15 13:00N 70°48' E 033°54'0 0.0 240 / 231013.8 1.5-4.4 7.7
2018-Feb-15 12:00N 70°48' E 033°54'8 7.9 240 / 191014.7 1.2-5.3 7.7
2018-Feb-15 11:00N 70°48' E 033°30'6 6.3 240 / 161014.7 1.1-5.5 7.7
2018-Feb-15 10:00N 70°42' E 033°24'6 6.0 250 / 161015.0 0.8-7.4 7.7
2018-Feb-15 09:00N 70°36' E 033°24'6 6.3 250 / 141014.9 0.4-6.8 7.7
2018-Feb-15 08:00N 70°30' E 033°18'1212.0 250 / 191014.8 0.6-6.2 7.6
2018-Feb-15 07:00N 70°18' E 033°18'0 0.0 250 / 171015.1 -0.0-4.8 7.6
2018-Feb-15 06:00N 70°18' E 033°18'6 6.3 250 / 171015.1 -0.0-4.7 7.6
2018-Feb-15 05:00N 70°12' E 033°24'1212.0 240 / 191015.1 0.6-5.0 7.6
2018-Feb-15 04:00N 70°00' E 033°24'6 6.3 240 / 211015.5 0.5-5.6 7.5
2018-Feb-15 03:00N 69°54' E 033°30'1212.0 240 / 211015.9 0.6-5.9 7.5
2018-Feb-15 02:00N 69°42' E 033°30'1212.0 230 / 191016.7 0.6-5.8 7.5
2018-Feb-15 01:00N 69°30' E 033°30'6 6.0 210 / 171017.6 0.2-3.7 7.5
2018-Feb-15 00:00N 69°24' E 033°30'1212.0 200 / 161018.2 -0.2-4.3 7.6
2018-Feb-14 23:00N 69°12' E 033°30'6 6.4 180 / 191018.3 -0.5-4.8 7.5
2018-Feb-14 22:00N 69°06' E 033°24'8 7.9 180 / 14 -1.0-5.3 7.6
2018-Feb-14 21:02N 69°03' E 033°04'0 7.9
2018-Feb-14 21:01N 69°03' E 033°04'3205.4
2018-Feb-14 21:00N 69°00' E 033°00'1 2.0 180 / 141019.1 -1.1-4.9 7.7
2018-Feb-14 20:30N 68°60' E 033°03'611.9
2018-Feb-14 20:00N 68°54' E 033°00'5566.6 170 / 161019.0 -1.3-5.2 7.7
2018-Feb-14 19:59N 68°59' E 033°02'0 0.0
2018-Feb-14 19:29N 68°59' E 033°02'510.9
2018-Feb-14 19:00N 68°54' E 033°00'5535.0 170 / 161019.3 -0.9-4.6 7.8
2018-Feb-14 18:59N 68°59' E 033°02'0 0.0
2018-Feb-14 18:29N 68°59' E 033°02'510.9
2018-Feb-14 18:00N 68°54' E 033°00'5520.7 170 / 121019.7 -0.8-5.1 7.7
2018-Feb-14 17:59N 68°59' E 033°02'0 0.0
2018-Feb-14 17:29N 68°59' E 033°02'510.9
2018-Feb-14 17:00N 68°54' E 033°00'5493.8 180 / 161019.3 -0.8-4.9 7.7
2018-Feb-14 16:59N 68°59' E 033°02'0 0.0
2018-Feb-14 16:29N 68°59' E 033°02'510.9
2018-Feb-14 16:00N 68°54' E 033°00'5481.5 180 / 121019.3 -1.3-5.5 7.6
2018-Feb-14 15:59N 68°59' E 033°02'0 0.0
2018-Feb-14 15:29N 68°59' E 033°02'510.9
2018-Feb-14 15:00N 68°54' E 033°00'5458.2 170 / 121019.7 -1.6-5.5 7.5
2018-Feb-14 14:59N 68°59' E 033°02'0 0.0
2018-Feb-14 14:29N 68°59' E 033°02'511.0
2018-Feb-14 14:00N 68°54' E 033°00'5437.2 180 / 121019.5 -2.4-5.9 7.5
2018-Feb-14 13:59N 68°59' E 033°02'0 0.0
2018-Feb-14 13:29N 68°59' E 033°02'511.0
2018-Feb-14 13:00N 68°54' E 033°00'5427.4 180 / 161019.6 -2.6-6.3 7.5
2018-Feb-14 12:59N 68°59' E 033°02'0 0.0
2018-Feb-14 12:29N 68°59' E 033°02'511.0
2018-Feb-14 12:00N 68°54' E 033°00'5409.7 170 / 121020.2 -2.9-6.6 7.5
2018-Feb-14 11:59N 68°59' E 033°02'0 0.0
2018-Feb-14 11:29N 68°59' E 033°02'511.0
2018-Feb-14 11:00N 68°54' E 033°00'5401.2 160 / 81020.5 -2.5-7.0 7.5
2018-Feb-14 10:59N 68°59' E 033°02'0 0.0
2018-Feb-14 10:29N 68°59' E 033°02'511.0
2018-Feb-14 10:00N 68°54' E 033°00'5385.3 160 / 81020.7 -2.7-6.7 7.5
2018-Feb-14 09:59N 68°59' E 033°02'0 0.6
2018-Feb-14 09:30N 68°60' E 033°02'3 6.9
2018-Feb-14 09:00N 69°03' E 033°03'3263.0
2018-Feb-14 09:00N 69°00' E 033°00'16 8.0 180 / 141020.1 -2.4-6.9 7.4
2018-Feb-14 07:00N 69°12' E 033°30'1212.0 210 / 161019.5 -2.3-6.8 7.4
2018-Feb-14 06:00N 69°24' E 033°30'1212.0 220 / 141019.1 -2.5-6.4 7.3
2018-Feb-14 05:00N 69°36' E 033°30'6 6.0 210 / 291017.3 -2.2-6.2 7.3
2018-Feb-14 04:00N 69°42' E 033°30'1212.2 220 / 141018.1 -1.9-5.7 7.4
2018-Feb-14 03:00N 69°54' E 033°24'8 8.2 220 / 141017.8 -2.2-6.1 7.5
2018-Feb-14 02:00N 69°54' E 033°00'1211.9 220 / 191017.1 -2.6-6.3 7.5
2018-Feb-14 01:00N 70°00' E 032°30'1010.2 220 / 161017.2 -2.2-6.3 7.4
2018-Feb-14 00:00N 70°06' E 032°06'421.3 230 / 161016.7 -2.3-6.2 7.4
2018-Feb-13 23:48N 70°10' E 032°02'310.0
2018-Feb-13 23:29N 70°09' E 031°53'713.3
2018-Feb-13 23:00N 70°06' E 031°36'21409.2 220 / 231016.2 -3.1-6.8 7.3
2018-Feb-13 22:59N 70°08' E 031°38'4 8.3
2018-Feb-13 22:30N 70°07' E 031°27'3 6.8
2018-Feb-13 22:00N 70°05' E 031°18'64026.7
2018-Feb-13 22:00N 70°00' E 031°12'4 7.8 220 / 251016.5 -3.3-7.4 7.3
2018-Feb-13 21:30N 70°04' E 031°09'3 6.4
2018-Feb-13 21:00N 70°02' E 031°01'2576.2
2018-Feb-13 21:00N 70°00' E 031°00'3 5.4 220 / 231016.1 -3.2-7.2 7.4
2018-Feb-13 20:30N 70°01' E 030°53'3 6.2
2018-Feb-13 20:00N 69°59' E 030°44'6602.9
2018-Feb-13 20:00N 69°54' E 030°42'5 9.4 210 / 161015.9 -4.0-8.1 7.3
2018-Feb-13 19:30N 69°58' E 030°36'3 6.4
2018-Feb-13 19:00N 69°57' E 030°28'32201.8
2018-Feb-13 19:00N 69°54' E 030°24'2 3.5 200 / 121015.7 -5.2-9.1 7.2
2018-Feb-13 18:29N 69°55' E 030°20'917.7
2018-Feb-13 18:00N 69°48' E 030°06'63006.2 180 / 211015.1 -5.2-8.5 7.3
2018-Feb-13 17:59N 69°54' E 030°11'3 5.8
2018-Feb-13 17:30N 69°51' E 030°07'3 6.2
2018-Feb-13 17:00N 69°48' E 030°06'   200 / 141015.3 -7.6-10.7 7.2
Track history (hours):
 
Tides and Currents Weather Stations Pressure Air Temp Water Temp Dewpoint Dewpoint Depression Visibility Wind Speed Wind Dir Waves Ship Positions

Oceanographic research ship Johan Hjort (Norway)

Detailed information on ship capabilities available from University of Delaware's Ocean Information Center and ARCUS's ALIAS (Arctic Logistics Information and Support) project.

Last reported at 2018-Feb-23 17:00 UTC. Time now 2018-Feb-23 17:51 UTC.
Position N 71°00' E 037°30'.

Type: Fishing. MMSI: 257139000.

Wind from 080 at 10 knots

Barometer 946.1 mb
Air temperature -4.2 ° C
Dewpoint -7.1 ° C
Water temperature 7.0 ° C

Date/timePositionNaut miles runAvg speedWind from/ knotsBaromVisibWave heightAir tempDewpointWater temp
2018-Feb-23 17:00N 71°00' E 037°30'2 2.0 080 / 10946.1 -4.2-7.1 7.0
2018-Feb-23 16:00N 71°00' E 037°24'1212.0 090 / 121039.4 -2.5-12.1 6.9
2018-Feb-23 15:00N 70°48' E 037°24'7 7.2 080 / 171038.8 -2.7-10.8 6.9
2018-Feb-23 14:00N 70°42' E 037°12'6 6.0 080 / 141038.5 -3.2-10.8 6.9
2018-Feb-23 13:00N 70°48' E 037°12'6 6.3 080 / 141038.0 -3.2-10.0 6.8
2018-Feb-23 12:00N 70°42' E 037°18'1212.0 070 / 101037.5 -4.0-9.5 6.9
2018-Feb-23 11:00N 70°30' E 037°18'0 0.0 080 / 141037.2 -3.0-10.6 6.8
2018-Feb-23 10:00N 70°30' E 037°18'8 8.0 080 / 161037.0 -2.7-13.8 6.8
2018-Feb-23 09:00N 70°30' E 037°42'6 6.0 090 / 161036.9 -3.2-13.5 6.7
2018-Feb-23 08:00N 70°30' E 038°00'2 2.0 080 / 161036.4 -3.2-12.3 6.7
2018-Feb-23 07:00N 70°30' E 038°06'1212.0 090 / 141036.2 -4.4-9.1 6.7
2018-Feb-23 06:00N 70°42' E 038°06'2 2.0 100 / 141037.0 -3.7-10.3 6.6
2018-Feb-23 05:00N 70°42' E 038°00'6 6.3 100 / 161036.7 -3.3-9.5 6.4
2018-Feb-23 04:00N 70°48' E 038°06'1212.2 080 / 171036.7 -4.0-10.0 6.4
2018-Feb-23 03:00N 71°00' E 038°12'6 6.3 080 / 141036.5 -4.3-10.4 6.5
2018-Feb-23 02:00N 71°06' E 038°18'2 1.9 080 / 101037.0 -4.8-9.1 6.4
2018-Feb-23 01:00N 71°06' E 038°12'1212.2 080 / 271036.4 -4.1-10.2 6.4
2018-Feb-23 00:00N 71°18' E 038°06'6 5.8 080 / 191036.5 -2.2-10.7 6.4
2018-Feb-22 23:00N 71°18' E 038°24'10 9.7 080 / 191036.5 -3.7-12.8 6.4
2018-Feb-22 22:00N 71°24' E 038°48'2 1.9 090 / 231036.4 -2.6-9.7 6.5
2018-Feb-22 21:00N 71°24' E 038°54'8 7.7 100 / 211035.6 -3.8-10.9 6.5
2018-Feb-22 20:00N 71°24' E 039°18'1111.3 120 / 231035.5 -4.5-8.0 6.5
2018-Feb-22 19:00N 71°18' E 039°48'1111.4 110 / 271035.0 -4.0-7.9 6.5
2018-Feb-22 18:00N 71°12' E 040°18'8 7.7 110 / 191034.7 -5.2-8.4 6.5
2018-Feb-22 17:00N 71°12' E 040°42'6 6.3 110 / 161034.2 -5.7-8.7 6.5
2018-Feb-22 16:00N 71°06' E 040°36'0 0.0 110 / 161033.3 -5.0-10.8 6.5
2018-Feb-22 15:00N 71°06' E 040°36'0 0.0 110 / 121032.2 -5.3-11.5 6.4
2018-Feb-22 14:00N 71°06' E 040°36'4 3.9 120 / 141032.0 -5.0-11.1 6.4
2018-Feb-22 13:00N 71°06' E 040°48'6 6.3 110 / 121031.7 -5.2-10.0 6.4
2018-Feb-22 12:00N 71°12' E 040°54'6 6.3 120 / 141031.5 -4.7-12.3 6.5
2018-Feb-22 11:00N 71°06' E 040°48'2 1.9 110 / 101030.7 -5.3-11.2 6.6
2018-Feb-22 10:00N 71°06' E 040°54'0 0.0 090 / 141030.7 -5.2-13.5 6.5
2018-Feb-22 09:00N 71°06' E 040°54'2 1.9 090 / 141030.2 -4.5-13.3 6.5
2018-Feb-22 08:00N 71°06' E 041°00'2 1.9 090 / 171029.2 -5.7-12.2 6.5
2018-Feb-22 07:00N 71°06' E 040°54'6 6.3 080 / 251029.2 -5.2-10.5 6.5
2018-Feb-22 06:00N 71°12' E 040°48'2 1.9 080 / 211029.0 -5.1-11.3 6.5
2018-Feb-22 05:00N 71°12' E 040°42'6 6.3 080 / 251028.6 -5.1-11.9 6.4
2018-Feb-22 04:00N 71°18' E 040°36'2 1.9 090 / 271028.3 -5.5-10.5 6.4
2018-Feb-22 03:00N 71°18' E 040°30'7 7.1 100 / 291027.9 -6.0-8.9 6.4
2018-Feb-22 02:00N 71°24' E 040°18'2 1.9 110 / 251027.7 -6.0-9.7 6.4
2018-Feb-22 01:00N 71°24' E 040°12'2 1.9 120 / 291027.1 -4.6-11.6 6.4
2018-Feb-22 00:00N 71°24' E 040°18'6 5.7 120 / 291027.0 -4.7-11.2 6.4
2018-Feb-21 23:00N 71°24' E 040°36'8 7.7 120 / 291026.7 -4.9-11.2 6.3
2018-Feb-21 22:00N 71°24' E 041°00'6 5.7 120 / 291026.4 -5.0-11.2 6.4
2018-Feb-21 21:00N 71°24' E 041°18'6 5.7 120 / 311026.0 -5.2-12.4 6.5
2018-Feb-21 20:00N 71°24' E 041°36'4 3.8 120 / 331025.7 -5.2-11.7 6.4
2018-Feb-21 19:00N 71°24' E 041°48'2 1.9 110 / 351025.2 -5.8-13.3 6.5
2018-Feb-21 18:00N 71°24' E 041°42'2 1.9 110 / 351024.7 -6.5-10.3 6.4
2018-Feb-21 17:00N 71°24' E 041°36'2 1.9 110 / 351023.8 -5.4-11.1 6.4
2018-Feb-21 16:00N 71°24' E 041°30'2 1.9 110 / 391022.7 -5.1-8.3 6.5
2018-Feb-21 15:00N 71°24' E 041°24'0 0.0 110 / 371021.8 -4.6-10.4 6.4
2018-Feb-21 14:00N 71°24' E 041°24'2 1.9 110 / 431021.0 -4.5-8.6 6.5
2018-Feb-21 13:00N 71°24' E 041°18'2 1.9 100 / 451019.7 -4.9-7.4 6.5
2018-Feb-21 12:00N 71°24' E 041°12'2 1.9 100 / 431018.5 -3.7-8.4 6.5
2018-Feb-21 11:00N 71°24' E 041°06'2 1.9 100 / 411018.0 -3.3-8.1 6.6
2018-Feb-21 10:00N 71°24' E 041°00'2 1.9 120 / 391016.7 -2.5-8.0 6.8
2018-Feb-21 09:00N 71°24' E 041°06'6 6.3 110 / 251016.1 -2.3-7.1 6.5
2018-Feb-21 08:00N 71°18' E 041°12'2 1.9 120 / 231015.9 -3.7-6.7 6.7
2018-Feb-21 07:00N 71°18' E 041°18'2 1.9 110 / 231015.4 -2.2-12.6 6.7
2018-Feb-21 06:00N 71°18' E 041°12'1313.3 120 / 171015.7 -2.8-15.9 6.4
2018-Feb-21 05:00N 71°06' E 041°30'7 7.2 120 / 161015.5 -3.5-15.3 6.3
2018-Feb-21 04:00N 71°00' E 041°42'6 6.3 120 / 81015.2 -4.2-13.4 6.3
2018-Feb-21 03:00N 71°06' E 041°48'1312.6 160 / 121015.2 -4.2-13.0 6.2
2018-Feb-21 02:00N 71°18' E 042°00'2 1.9 170 / 141014.8 -4.2-9.4 6.3
2018-Feb-21 01:00N 71°18' E 042°06'6 5.8 170 / 81014.9 -4.4-7.7 6.1
2018-Feb-21 00:00N 71°18' E 042°24'1111.4 180 / 81015.2 -4.7-8.3 6.0
2018-Feb-20 23:00N 71°12' E 042°54'4 3.9 140 / 61015.3 -4.4-10.7 6.0
2018-Feb-20 22:00N 71°12' E 043°06'1212.0 100 / 41015.6 -4.5-11.3 6.0
2018-Feb-20 21:00N 71°00' E 043°06'6 6.0 090 / 41015.7 -4.8-15.5 5.9
2018-Feb-20 20:00N 70°54' E 043°06'2 2.0 010 / 41015.7 -5.2-16.0 5.9
2018-Feb-20 19:00N 70°54' E 043°12'1313.4 290 / 81016.0 -5.0-17.7 5.8
2018-Feb-20 18:00N 70°42' E 043°30'6 5.9 310 / 101016.6 -5.0-15.1 5.8
2018-Feb-20 17:00N 70°42' E 043°48'8 7.9 310 / 101017.0 -4.5-12.1 5.7
2018-Feb-20 16:00N 70°42' E 044°12'1211.6 320 / 171017.2 -4.2-9.8 5.7
2018-Feb-20 15:00N 70°36' E 044°42'1010.0 330 / 171017.1 -4.4-8.0 5.5
2018-Feb-20 14:00N 70°36' E 045°12'4 4.0 260 / 121017.6 -5.5-8.9 5.4
2018-Feb-20 13:00N 70°36' E 045°24'1010.0 260 / 61018.1 -3.7-11.8 5.5
2018-Feb-20 12:00N 70°36' E 045°54'1211.7 310 / 41018.7 -3.8-9.5 5.6
2018-Feb-20 11:00N 70°30' E 046°24'8 8.0 250 / 101019.1 -3.3-10.9 5.7
2018-Feb-20 10:00N 70°30' E 046°48'4 4.0 230 / 81019.8 -4.3-7.6 5.9
2018-Feb-20 09:00N 70°30' E 047°00'1010.0 240 / 121020.1 -3.3-8.8 5.9
2018-Feb-20 08:00N 70°30' E 047°30'2 2.0 030 / 21020.6 -4.5-7.6 6.1
2018-Feb-20 07:00N 70°30' E 047°36'1312.6 290 / 101021.0 -4.1-7.4 6.1
2018-Feb-20 06:00N 70°42' E 047°48'0 0.0 290 / 81020.2 -3.3-10.5 6.1
2018-Feb-20 05:00N 70°42' E 047°48'0 0.0 320 / 141020.5 -3.4-9.2 6.2
2018-Feb-20 04:00N 70°42' E 047°48'7 7.2 330 / 61021.1 -3.3-10.5 6.3
2018-Feb-20 03:00N 70°48' E 047°36'10 9.9 340 / 81021.5 -3.2-11.7 6.3
2018-Feb-20 02:00N 70°54' E 047°12'7 7.2 350 / 101021.8 -3.4-9.4 6.3
2018-Feb-20 01:00N 71°00' E 047°00'6 5.9 300 / 141022.7 -3.0-10.4 6.2
2018-Feb-20 00:00N 71°00' E 046°42'10 9.8 290 / 61023.3 -4.0-8.0 6.4
2018-Feb-19 23:00N 71°00' E 046°12'6 5.9 320 / 81023.7 -2.9-10.6 6.4
2018-Feb-19 22:00N 71°00' E 045°54'10 9.8 330 / 61024.5 -3.2-11.1 6.4
2018-Feb-19 21:00N 71°00' E 045°24'6 5.9 340 / 81024.7 -3.1-10.9 6.3
2018-Feb-19 20:00N 71°00' E 045°06'6 6.3 330 / 101025.0 -2.5-9.8 6.5
2018-Feb-19 19:00N 71°06' E 045°00'6 5.8 020 / 121024.8 -2.8-11.7 6.4
2018-Feb-19 18:00N 71°06' E 044°42'4 3.9 020 / 121025.6 -2.9-12.2 6.3
2018-Feb-19 17:00N 71°06' E 044°30'1111.4 040 / 211024.9 -2.7-7.8 6.3
2018-Feb-19 16:00N 71°12' E 044°00'2 1.9 050 / 171025.0 -2.5-12.0 6.2
2018-Feb-19 15:00N 71°12' E 043°54'6 6.0 060 / 191025.4 -2.6-8.8 6.2
2018-Feb-19 14:00N 71°18' E 043°54'1212.0 060 / 191025.9 -2.5-8.7 6.1
2018-Feb-19 13:00N 71°30' E 043°54'8 8.3 050 / 211025.2 -2.8-9.4 5.9
2018-Feb-19 12:00N 71°24' E 044°12'10 9.6 020 / 231025.4 -3.0-6.0 5.8
2018-Feb-19 11:00N 71°24' E 044°42'1111.3 230 / 211024.5 -1.4-8.9 5.9
2018-Feb-19 10:00N 71°18' E 045°12'6 6.3 230 / 191025.0 -2.1-9.1 5.7
2018-Feb-19 09:00N 71°24' E 045°18'7 7.1 220 / 191023.8 -2.4-9.8 5.7
2018-Feb-19 08:00N 71°30' E 045°30'2 1.9 220 / 171024.5 -2.2-9.5 5.8
2018-Feb-19 07:00N 71°30' E 045°36'10 9.5 220 / 191023.7 -2.7-10.1 5.8
2018-Feb-19 06:00N 71°30' E 046°06'8 7.6 220 / 161024.0 -3.1-11.0 5.9
2018-Feb-19 05:00N 71°30' E 046°30'6 6.3 220 / 121024.4 -3.2-11.4 6.1
2018-Feb-19 04:00N 71°36' E 046°36'6 6.0 210 / 141024.4 -3.1-12.1 6.0
2018-Feb-19 03:00N 71°42' E 046°36'6 6.3 200 / 121024.0 -2.8-11.6 6.1
2018-Feb-19 02:00N 71°48' E 046°42'6 6.0 190 / 101024.0 -2.7-10.1 6.3
2018-Feb-19 01:00N 71°54' E 046°42'1212.0 190 / 121023.8 -3.2-10.3 6.4
2018-Feb-19 00:00N 72°06' E 046°42'0 0.0 190 / 141023.9 -3.2-10.1 6.4
2018-Feb-18 23:00N 72°06' E 046°42'9 9.2 190 / 121024.0 -3.1-9.8 6.4
2018-Feb-18 22:00N 72°06' E 046°12'7 7.0 180 / 101024.2 -2.9-10.0 6.4
2018-Feb-18 21:00N 72°12' E 046°00'6 6.0 190 / 121023.8 -3.3-10.1 6.5
2018-Feb-18 20:00N 72°06' E 046°00'1212.1 180 / 141023.7 -3.4-10.4 6.4
2018-Feb-18 19:00N 71°54' E 045°54'6 5.6 160 / 101023.4 -3.7-10.7 6.4
2018-Feb-18 18:00N 71°54' E 045°36'1111.2 150 / 101023.2 -3.5-10.7 6.5
2018-Feb-18 17:00N 71°54' E 045°00'2 1.9 150 / 121022.7 -2.8-9.4 6.6
2018-Feb-18 16:00N 71°54' E 044°54'6 6.0 140 / 141022.7 -2.9-8.6 6.5
2018-Feb-18 15:00N 71°48' E 044°54'1212.1 130 / 171022.3 -3.1-8.5 6.5
2018-Feb-18 14:00N 71°36' E 044°48'4 3.8 120 / 171022.0 -3.2-8.4 6.5
2018-Feb-18 13:00N 71°36' E 044°36'1111.2 120 / 121021.6 -2.9-11.0 6.5
2018-Feb-18 12:00N 71°42' E 044°06'6 5.7 120 / 81021.2 -2.9-10.0 6.6
2018-Feb-18 11:00N 71°42' E 043°48'2 1.9 110 / 121020.8 -3.1-10.0 6.6
2018-Feb-18 10:00N 71°42' E 043°54'9 9.4 120 / 161020.5 -2.9-9.3 6.6
2018-Feb-18 09:00N 71°42' E 043°24'4 3.8 040 / 81020.0 -2.7-6.8 6.7
2018-Feb-18 08:00N 71°42' E 043°12'0 0.0 040 / 101019.3 -2.6-6.3 6.6
2018-Feb-18 07:00N 71°42' E 043°12'1212.1 040 / 161018.9 -2.3-7.1 6.7
2018-Feb-18 06:00N 71°30' E 043°06'2 1.9 040 / 141018.5 -1.8-10.1 6.6
2018-Feb-18 05:00N 71°30' E 043°00'10 9.5 060 / 121018.4 -2.1-8.6 6.6
2018-Feb-18 04:00N 71°30' E 042°30'6 5.7 320 / 171018.6 -2.6-7.9 6.6
2018-Feb-18 03:00N 71°30' E 042°12'6 6.3 010 / 121018.5 -2.2-21.4 6.6
2018-Feb-18 02:00N 71°36' E 042°06'1212.1 340 / 141018.5 -2.7-8.4 6.5
2018-Feb-18 01:00N 71°48' E 042°12'0 0.0 340 / 19 -0.8-6.7 6.6
2018-Feb-18 00:00N 71°48' E 042°12'6 6.3 330 / 171018.2 -2.2-11.0 6.5
2018-Feb-17 23:00N 71°54' E 042°18'6 6.0 340 / 161018.3 -2.1-11.9 6.5
2018-Feb-17 22:00N 72°00' E 042°18'6 5.6 340 / 191018.8 -2.6-11.0 6.4
2018-Feb-17 21:00N 72°00' E 042°36'7 7.4 340 / 211018.1 -3.2-8.9 6.4
2018-Feb-17 20:00N 72°00' E 043°00'2 1.9 340 / 211018.2 -2.0-10.1 6.3
2018-Feb-17 19:00N 72°00' E 043°06'8 8.2 340 / 211017.8 -2.9-7.8 6.3
2018-Feb-17 18:00N 72°06' E 043°24'6 6.0 320 / 211018.1 -2.3-10.3 6.3
2018-Feb-17 17:00N 72°12' E 043°24'6 6.3 280 / 251017.7 -3.2-8.6 6.4
2018-Feb-17 16:00N 72°18' E 043°18'9 9.1 320 / 211017.7 -2.0-12.7 6.3
2018-Feb-17 15:00N 72°18' E 042°48'5 5.5 020 / 231017.5 -1.8-10.7 6.2
2018-Feb-17 14:00N 72°18' E 042°30'1110.9 040 / 231017.6 -2.6-7.3 6.2
2018-Feb-17 13:00N 72°24' E 042°00'5 5.4 090 / 211018.1 -2.2-9.0 6.1
2018-Feb-17 12:00N 72°24' E 041°42'6 6.3 020 / 251018.2 -2.0-11.1 6.2
2018-Feb-17 11:00N 72°18' E 041°36'6 6.0 350 / 271017.7 -1.6-10.0 6.3
2018-Feb-17 10:00N 72°12' E 041°36'6 6.0 350 / 331017.4 -2.5-7.4 6.4
2018-Feb-17 09:00N 72°06' E 041°36'0 0.0 330 / 251017.1 -1.6-8.0 6.4
2018-Feb-17 08:00N 72°06' E 041°36'0 0.0 020 / 291016.7 -1.6-8.2 6.5
2018-Feb-17 07:00N 72°06' E 041°36'6 6.0 020 / 291015.2 -1.5-8.9 6.6
2018-Feb-17 06:00N 72°00' E 041°36'0 0.0 030 / 291015.8 -1.3-8.1 6.6
2018-Feb-17 05:00N 72°00' E 041°36'6 6.0 020 / 331015.7 0.1-8.9 6.7
2018-Feb-17 04:00N 72°06' E 041°36'6 6.0 320 / 331015.6 -2.2-5.8 6.7
2018-Feb-17 03:00N 72°00' E 041°36'6 6.3 350 / 331014.7 -1.1-5.5 6.6
2018-Feb-17 02:00N 71°54' E 041°30'6 6.0 340 / 331014.2 -1.1-6.1 6.7
2018-Feb-17 01:00N 71°48' E 041°30'6 6.3 330 / 291014.3 -1.1-5.1 6.7
2018-Feb-17 00:00N 71°42' E 041°24'0 0.0 330 / 271014.1 -0.4-6.4 6.6
2018-Feb-16 23:00N 71°42' E 041°24'2 1.9 330 / 291014.5 -1.5-5.4 6.6
2018-Feb-16 22:00N 71°42' E 041°18'2 1.9 340 / 251013.9 -0.0-5.8 6.5
2018-Feb-16 21:00N 71°42' E 041°12'8 8.2 330 / 291013.6 -0.0-6.0 6.4
2018-Feb-16 20:00N 71°48' E 040°54'9 9.4 340 / 291013.0 -0.3-6.6 6.3
2018-Feb-16 19:00N 71°48' E 040°24'4 3.7 340 / 271014.0 -0.4-7.5 6.3
2018-Feb-16 18:00N 71°48' E 040°12'7 7.5 330 / 251013.8 -0.4-7.1 6.4
2018-Feb-16 17:00N 71°48' E 039°48'7 7.1 340 / 311014.0 -0.9-9.5 6.6
2018-Feb-16 16:00N 71°42' E 039°36'2 1.9 340 / 231013.7 -0.5-7.2 6.5
2018-Feb-16 15:00N 71°42' E 039°30'10 9.6 340 / 251014.0 -0.5-7.2 6.6
2018-Feb-16 14:00N 71°48' E 039°06'2 1.9 340 / 251013.4 0.1-6.3 6.7
2018-Feb-16 13:00N 71°48' E 039°00'9 9.4 330 / 231012.8 -0.0-5.0 6.7
2018-Feb-16 12:00N 71°48' E 038°30'10 9.6 330 / 251012.7 -0.0-6.3 6.8
2018-Feb-16 11:00N 71°42' E 038°06'4 3.8 330 / 251012.7 -0.5-3.6 7.1
2018-Feb-16 10:00N 71°42' E 037°54'6 6.3 330 / 211012.5 0.9-5.8 7.2
2018-Feb-16 09:00N 71°48' E 037°48'7 7.5 340 / 251012.2 0.8-5.7 7.4
2018-Feb-16 08:00N 71°48' E 037°24'7 7.5 330 / 161012.2 0.6-3.7 7.4
2018-Feb-16 07:00N 71°48' E 037°00'2 1.9 330 / 191012.5 0.7-5.6 7.6
2018-Feb-16 06:00N 71°48' E 036°54'1111.2 310 / 231011.8 0.5-3.1 7.6
2018-Feb-16 05:00N 71°48' E 036°18'2 1.9 300 / 231012.5 1.0-7.0 7.7
2018-Feb-16 04:00N 71°48' E 036°12'7 7.5 310 / 211012.7 0.2-8.3 7.8
2018-Feb-16 03:00N 71°48' E 035°48'1111.1 320 / 211013.6 0.2-7.8 7.8
2018-Feb-16 02:00N 71°54' E 035°18'6 6.3 310 / 171013.8 -0.2-6.1 7.9
2018-Feb-16 01:00N 71°48' E 035°12'6 6.0 310 / 191013.5 -0.2-8.6 8.0
2018-Feb-16 00:00N 71°42' E 035°12'1212.0 320 / 191013.9 0.2-8.5 8.0
2018-Feb-15 23:00N 71°30' E 035°12'4 3.8 330 / 171014.3 0.1-7.0 8.0
2018-Feb-15 22:00N 71°30' E 035°00'10 9.5 340 / 161014.2 0.5-5.6 8.1
2018-Feb-15 21:00N 71°30' E 034°30'8 7.6 340 / 161014.2 1.3-4.7 8.0
2018-Feb-15 20:00N 71°30' E 034°06'7 7.1 330 / 121014.2 1.8-5.5 8.0
2018-Feb-15 19:00N 71°24' E 034°18'8 8.3 330 / 121013.7 2.0-6.0 7.8
2018-Feb-15 18:00N 71°18' E 034°36'2 1.9 320 / 101013.6 1.7-4.0 7.9
2018-Feb-15 17:00N 71°18' E 034°42'1313.3 330 / 101013.5 1.9-2.7 7.9
2018-Feb-15 16:00N 71°06' E 034°24'4 3.9 290 / 141013.5 1.8-1.3 7.8
2018-Feb-15 15:00N 71°06' E 034°12'1312.6 270 / 141013.2 1.6-0.6 7.7
2018-Feb-15 14:00N 70°54' E 034°00'6 6.3 260 / 211013.6 1.8-1.7 7.7
2018-Feb-15 13:00N 70°48' E 033°54'0 0.0 240 / 231013.8 1.5-4.4 7.7
2018-Feb-15 12:00N 70°48' E 033°54'8 7.9 240 / 191014.7 1.2-5.3 7.7
2018-Feb-15 11:00N 70°48' E 033°30'6 6.3 240 / 161014.7 1.1-5.5 7.7
2018-Feb-15 10:00N 70°42' E 033°24'6 6.0 250 / 161015.0 0.8-7.4 7.7
2018-Feb-15 09:00N 70°36' E 033°24'6 6.3 250 / 141014.9 0.4-6.8 7.7
2018-Feb-15 08:00N 70°30' E 033°18'1212.0 250 / 191014.8 0.6-6.2 7.6
2018-Feb-15 07:00N 70°18' E 033°18'0 0.0 250 / 171015.1 -0.0-4.8 7.6
2018-Feb-15 06:00N 70°18' E 033°18'6 6.3 250 / 171015.1 -0.0-4.7 7.6
2018-Feb-15 05:00N 70°12' E 033°24'1212.0 240 / 191015.1 0.6-5.0 7.6
2018-Feb-15 04:00N 70°00' E 033°24'6 6.3 240 / 211015.5 0.5-5.6 7.5
2018-Feb-15 03:00N 69°54' E 033°30'1212.0 240 / 211015.9 0.6-5.9 7.5
2018-Feb-15 02:00N 69°42' E 033°30'1212.0 230 / 191016.7 0.6-5.8 7.5
2018-Feb-15 01:00N 69°30' E 033°30'6 6.0 210 / 171017.6 0.2-3.7 7.5
2018-Feb-15 00:00N 69°24' E 033°30'1212.0 200 / 161018.2 -0.2-4.3 7.6
2018-Feb-14 23:00N 69°12' E 033°30'6 6.4 180 / 191018.3 -0.5-4.8 7.5
2018-Feb-14 22:00N 69°06' E 033°24'8 7.9 180 / 14 -1.0-5.3 7.6
2018-Feb-14 21:02N 69°03' E 033°04'0 7.9
2018-Feb-14 21:01N 69°03' E 033°04'3205.4
2018-Feb-14 21:00N 69°00' E 033°00'1 2.0 180 / 141019.1 -1.1-4.9 7.7
2018-Feb-14 20:30N 68°60' E 033°03'611.9
2018-Feb-14 20:00N 68°54' E 033°00'5566.6 170 / 161019.0 -1.3-5.2 7.7
2018-Feb-14 19:59N 68°59' E 033°02'0 0.0
2018-Feb-14 19:29N 68°59' E 033°02'510.9
2018-Feb-14 19:00N 68°54' E 033°00'5535.0 170 / 161019.3 -0.9-4.6 7.8
2018-Feb-14 18:59N 68°59' E 033°02'0 0.0
2018-Feb-14 18:29N 68°59' E 033°02'510.9
2018-Feb-14 18:00N 68°54' E 033°00'5520.7 170 / 121019.7 -0.8-5.1 7.7
2018-Feb-14 17:59N 68°59' E 033°02'0 0.0
2018-Feb-14 17:29N 68°59' E 033°02'510.9
2018-Feb-14 17:00N 68°54' E 033°00'5493.8 180 / 161019.3 -0.8-4.9 7.7
2018-Feb-14 16:59N 68°59' E 033°02'0 0.0
2018-Feb-14 16:29N 68°59' E 033°02'510.9
2018-Feb-14 16:00N 68°54' E 033°00'5481.5 180 / 121019.3 -1.3-5.5 7.6
2018-Feb-14 15:59N 68°59' E 033°02'0 0.0
2018-Feb-14 15:29N 68°59' E 033°02'510.9
2018-Feb-14 15:00N 68°54' E 033°00'5458.2 170 / 121019.7 -1.6-5.5 7.5
2018-Feb-14 14:59N 68°59' E 033°02'0 0.0
2018-Feb-14 14:29N 68°59' E 033°02'511.0
2018-Feb-14 14:00N 68°54' E 033°00'5437.2 180 / 121019.5 -2.4-5.9 7.5
2018-Feb-14 13:59N 68°59' E 033°02'0 0.0
2018-Feb-14 13:29N 68°59' E 033°02'511.0
2018-Feb-14 13:00N 68°54' E 033°00'5427.4 180 / 161019.6 -2.6-6.3 7.5
2018-Feb-14 12:59N 68°59' E 033°02'0 0.0
2018-Feb-14 12:29N 68°59' E 033°02'511.0
2018-Feb-14 12:00N 68°54' E 033°00'5409.7 170 / 121020.2 -2.9-6.6 7.5
2018-Feb-14 11:59N 68°59' E 033°02'0 0.0
2018-Feb-14 11:29N 68°59' E 033°02'511.0
2018-Feb-14 11:00N 68°54' E 033°00'5401.2 160 / 81020.5 -2.5-7.0 7.5
2018-Feb-14 10:59N 68°59' E 033°02'0 0.0
2018-Feb-14 10:29N 68°59' E 033°02'511.0
2018-Feb-14 10:00N 68°54' E 033°00'5385.3 160 / 81020.7 -2.7-6.7 7.5
2018-Feb-14 09:59N 68°59' E 033°02'0 0.6
2018-Feb-14 09:30N 68°60' E 033°02'3 6.9
2018-Feb-14 09:00N 69°03' E 033°03'3263.0
2018-Feb-14 09:00N 69°00' E 033°00'16 8.0 180 / 141020.1 -2.4-6.9 7.4
2018-Feb-14 07:00N 69°12' E 033°30'1212.0 210 / 161019.5 -2.3-6.8 7.4
2018-Feb-14 06:00N 69°24' E 033°30'1212.0 220 / 141019.1 -2.5-6.4 7.3
2018-Feb-14 05:00N 69°36' E 033°30'6 6.0 210 / 291017.3 -2.2-6.2 7.3
2018-Feb-14 04:00N 69°42' E 033°30'1212.2 220 / 141018.1 -1.9-5.7 7.4
2018-Feb-14 03:00N 69°54' E 033°24'8 8.2 220 / 141017.8 -2.2-6.1 7.5
2018-Feb-14 02:00N 69°54' E 033°00'1211.9 220 / 191017.1 -2.6-6.3 7.5
2018-Feb-14 01:00N 70°00' E 032°30'1010.2 220 / 161017.2 -2.2-6.3 7.4
2018-Feb-14 00:00N 70°06' E 032°06'421.3 230 / 161016.7 -2.3-6.2 7.4
2018-Feb-13 23:48N 70°10' E 032°02'310.0
2018-Feb-13 23:29N 70°09' E 031°53'713.3
2018-Feb-13 23:00N 70°06' E 031°36'21409.2 220 / 231016.2 -3.1-6.8 7.3
2018-Feb-13 22:59N 70°08' E 031°38'4 8.3
2018-Feb-13 22:30N 70°07' E 031°27'3 6.8
2018-Feb-13 22:00N 70°05' E 031°18'64026.7
2018-Feb-13 22:00N 70°00' E 031°12'4 7.8 220 / 251016.5 -3.3-7.4 7.3
2018-Feb-13 21:30N 70°04' E 031°09'3 6.4
2018-Feb-13 21:00N 70°02' E 031°01'2576.2
2018-Feb-13 21:00N 70°00' E 031°00'3 5.4 220 / 231016.1 -3.2-7.2 7.4
2018-Feb-13 20:30N 70°01' E 030°53'3 6.2
2018-Feb-13 20:00N 69°59' E 030°44'6602.9
2018-Feb-13 20:00N 69°54' E 030°42'5 9.4 210 / 161015.9 -4.0-8.1 7.3
2018-Feb-13 19:30N 69°58' E 030°36'3 6.4
2018-Feb-13 19:00N 69°57' E 030°28'32201.8
2018-Feb-13 19:00N 69°54' E 030°24'2 3.5 200 / 121015.7 -5.2-9.1 7.2
2018-Feb-13 18:29N 69°55' E 030°20'917.7
2018-Feb-13 18:00N 69°48' E 030°06'63006.2 180 / 211015.1 -5.2-8.5 7.3
2018-Feb-13 17:59N 69°54' E 030°11'3 5.8
2018-Feb-13 17:30N 69°51' E 030°07'3 6.2
2018-Feb-13 17:00N 69°48' E 030°06'   200 / 141015.3 -7.6-10.7 7.2

Dump ship's entire track history